createdAt,value
2016-10-14T00:00:04.342Z,64.56
2016-10-14T00:01:04.361Z,64.53
2016-10-14T00:02:04.694Z,65.29
2016-10-14T00:03:04.712Z,64.53
2016-10-14T00:04:04.734Z,65.2
2016-10-14T00:05:04.751Z,65.29
2016-10-14T00:06:04.452Z,65.39
2016-10-14T00:07:04.787Z,65.1
2016-10-14T00:08:04.492Z,64.94
2016-10-14T00:09:04.510Z,65.48
2016-10-14T00:10:04.844Z,65.2
2016-10-14T00:11:04.858Z,65.67
2016-10-14T00:12:04.881Z,65.86
2016-10-14T00:13:04.583Z,66.44
2016-10-14T00:14:04.919Z,65.77
2016-10-14T00:15:04.620Z,65.77
2016-10-14T00:16:04.640Z,65.39
2016-10-14T00:17:04.971Z,65.29
2016-10-14T00:18:04.992Z,65.77
2016-10-14T00:19:05.009Z,65.86
2016-10-14T00:20:04.714Z,65.96
2016-10-14T00:21:04.732Z,65.7
2016-10-14T00:22:05.065Z,65.23
2016-10-14T00:23:04.769Z,65.86
2016-10-14T00:24:04.786Z,65.33
2016-10-14T00:25:05.122Z,65.23
2016-10-14T00:26:04.827Z,65.61
2016-10-14T00:27:04.841Z,65.33
2016-10-14T00:28:05.178Z,64.91
2016-10-14T00:29:05.192Z,65.29
2016-10-14T00:30:04.901Z,65.39
2016-10-14T00:31:04.917Z,65.1
2016-10-14T00:32:04.937Z,65.2
2016-10-14T00:33:04.959Z,65.86
2016-10-14T00:34:05.287Z,65.77
2016-10-14T00:35:05.308Z,65.58
2016-10-14T00:36:05.327Z,66.15
2016-10-14T00:37:05.030Z,65.33
2016-10-14T00:38:05.045Z,65.77
2016-10-14T00:39:05.386Z,65.8
2016-10-14T00:40:05.402Z,65.7
2016-10-14T00:41:05.103Z,65.61
2016-10-14T00:42:05.122Z,65.23
2016-10-14T00:43:05.456Z,64.75
2016-10-14T00:44:05.157Z,64.47
2016-10-14T00:45:05.492Z,64.75
2016-10-14T00:46:05.548Z,65.29
2016-10-14T00:47:05.551Z,65.29
2016-10-14T00:48:05.561Z,65.86
2016-10-14T00:49:05.260Z,64.91
2016-10-14T00:50:05.270Z,65.1
2016-10-14T00:51:05.287Z,65.29
2016-10-14T00:52:05.310Z,65.04
2016-10-14T00:53:05.325Z,65.2
2016-10-14T00:54:05.656Z,64.53
2016-10-14T00:55:05.679Z,64.43
2016-10-14T00:56:05.696Z,65.1
2016-10-14T00:57:05.715Z,65.29
2016-10-14T00:58:05.418Z,65.33
2016-10-14T00:59:05.437Z,65.42
2016-10-14T01:00:05.770Z,65.2
2016-10-14T01:01:05.473Z,65.29
2016-10-14T01:02:05.493Z,65.29
2016-10-14T01:03:05.536Z,65.2
2016-10-14T01:04:05.552Z,65.1
2016-10-14T01:05:05.554Z,65
2016-10-14T01:06:05.566Z,65.77
2016-10-14T01:07:05.900Z,65.77
2016-10-14T01:08:05.602Z,66.05
2016-10-14T01:09:05.623Z,65.96
2016-10-14T01:10:05.954Z,65.8
2016-10-14T01:11:05.660Z,64.94
2016-10-14T01:12:05.995Z,64.85
2016-10-14T01:13:05.697Z,65.33
2016-10-14T01:14:06.033Z,65.13
2016-10-14T01:15:06.047Z,65.33
2016-10-14T01:16:05.753Z,65.52
2016-10-14T01:17:05.773Z,65
2016-10-14T01:18:06.112Z,65.67
2016-10-14T01:19:06.133Z,65.2
2016-10-14T01:20:05.828Z,65.67
2016-10-14T01:21:05.846Z,65.67
2016-10-14T01:22:06.181Z,65.96
2016-10-14T01:23:06.201Z,65.48
2016-10-14T01:24:05.902Z,65.67
2016-10-14T01:25:06.237Z,65.48
2016-10-14T01:26:05.940Z,65.48
2016-10-14T01:27:05.958Z,65.48
2016-10-14T01:28:06.293Z,64.81
2016-10-14T01:29:05.996Z,64.94
2016-10-14T01:30:06.014Z,65.33
2016-10-14T01:31:06.036Z,64.94
2016-10-14T01:32:06.368Z,65.52
2016-10-14T01:33:06.068Z,65.58
2016-10-14T01:34:06.086Z,65.96
2016-10-14T01:35:06.107Z,65.96
2016-10-14T01:36:06.125Z,65.58
2016-10-14T01:37:06.467Z,64.91
2016-10-14T01:38:06.162Z,65.77
2016-10-14T01:39:06.178Z,65.86
2016-10-14T01:40:06.402Z,65.77
2016-10-14T01:41:06.216Z,65.96
2016-10-14T01:42:06.236Z,65.58
2016-10-14T01:43:06.577Z,65.77
2016-10-14T01:44:06.279Z,65.58
2016-10-14T01:45:06.290Z,65.77
2016-10-14T01:46:06.309Z,64.81
2016-10-14T01:47:06.330Z,65.67
2016-10-14T01:48:06.668Z,65.96
2016-10-14T01:49:06.364Z,65.1
2016-10-14T01:50:06.383Z,64.81
2016-10-14T01:51:06.401Z,66.05
2016-10-14T01:52:06.741Z,65.77
2016-10-14T01:53:06.437Z,65.2
2016-10-14T01:54:06.772Z,65.86
2016-10-14T01:55:06.792Z,66.05
2016-10-14T01:56:06.810Z,66.05
2016-10-14T01:57:06.827Z,66.24
2016-10-14T01:58:06.847Z,65.77
2016-10-14T01:59:06.549Z,66.15
2016-10-14T02:00:06.882Z,66.63
2016-10-14T02:01:06.586Z,66.34
2016-10-14T02:02:06.940Z,66.15
2016-10-14T02:03:07.074Z,66.34
2016-10-14T02:04:06.644Z,66.91
2016-10-14T02:05:06.659Z,66.63
2016-10-14T02:06:06.678Z,67
2016-10-14T02:07:06.697Z,66.24
2016-10-14T02:08:06.715Z,66.63
2016-10-14T02:09:06.734Z,66.91
2016-10-14T02:10:07.065Z,66.82
2016-10-14T02:11:07.085Z,66.24
2016-10-14T02:12:07.102Z,66.24
2016-10-14T02:13:06.808Z,66.34
2016-10-14T02:14:06.825Z,66.44
2016-10-14T02:15:07.156Z,66.63
2016-10-14T02:16:06.861Z,66.05
2016-10-14T02:17:06.878Z,66.15
2016-10-14T02:18:06.948Z,66.63
2016-10-14T02:19:06.932Z,66.24
2016-10-14T02:20:06.937Z,65.77
2016-10-14T02:21:07.349Z,65.77
2016-10-14T02:22:06.970Z,66.15
2016-10-14T02:23:07.307Z,66.72
2016-10-14T02:24:07.008Z,65.96
2016-10-14T02:25:07.347Z,66.15
2016-10-14T02:26:07.362Z,66.34
2016-10-14T02:27:07.382Z,66.15
2016-10-14T02:28:07.082Z,66.34
2016-10-14T02:29:07.100Z,65.96
2016-10-14T02:30:07.138Z,65.86
2016-10-14T02:31:07.137Z,65.86
2016-10-14T02:32:07.473Z,66.15
2016-10-14T02:33:07.176Z,66.15
2016-10-14T02:34:07.190Z,66.34
2016-10-14T02:35:07.212Z,65.96
2016-10-14T02:36:07.549Z,66.53
2016-10-14T02:37:07.563Z,66.63
2016-10-14T02:38:07.267Z,66.91
2016-10-14T02:39:07.600Z,66.44
2016-10-14T02:40:07.307Z,66.05
2016-10-14T02:41:07.638Z,66.05
2016-10-14T02:42:07.357Z,66.24
2016-10-14T02:43:07.356Z,65.96
2016-10-14T02:44:07.706Z,65.77
2016-10-14T02:45:07.424Z,65.67
2016-10-14T02:46:07.412Z,66.15
2016-10-14T02:47:07.436Z,65.77
2016-10-14T02:48:07.771Z,65.96
2016-10-14T02:49:07.785Z,66.15
2016-10-14T02:50:07.487Z,66.53
2016-10-14T02:51:07.506Z,65.67
2016-10-14T02:52:07.525Z,65.77
2016-10-14T02:53:07.863Z,65.96
2016-10-14T02:54:07.877Z,66.53
2016-10-14T02:55:07.899Z,66.63
2016-10-14T02:56:07.916Z,66.63
2016-10-14T02:57:07.936Z,67.58
2016-10-14T02:58:07.633Z,67.64
2016-10-14T02:59:07.985Z,67.64
2016-10-14T03:00:07.986Z,67.07
2016-10-14T03:01:07.688Z,67.83
2016-10-14T03:02:08.024Z,67.45
2016-10-14T03:03:08.088Z,67.45
2016-10-14T03:04:07.759Z,67.83
2016-10-14T03:05:07.759Z,67.64
2016-10-14T03:06:08.109Z,67.35
2016-10-14T03:07:08.111Z,67.93
2016-10-14T03:08:07.815Z,67.16
2016-10-14T03:09:08.149Z,67.93
2016-10-14T03:10:08.174Z,68.02
2016-10-14T03:11:08.184Z,67.74
2016-10-14T03:12:07.889Z,68.3
2016-10-14T03:13:07.906Z,67.74
2016-10-14T03:14:08.238Z,67.16
2016-10-14T03:15:07.944Z,67.83
2016-10-14T03:16:08.281Z,67.26
2016-10-14T03:17:07.979Z,67.26
2016-10-14T03:18:08.020Z,67.55
2016-10-14T03:19:08.329Z,67.35
2016-10-14T03:20:08.349Z,67.86
2016-10-14T03:21:08.050Z,67.96
2016-10-14T03:22:08.070Z,67.39
2016-10-14T03:23:08.088Z,67.29
2016-10-14T03:24:08.104Z,67.68
2016-10-14T03:25:08.141Z,67.48
2016-10-14T03:26:08.458Z,67.29
2016-10-14T03:27:08.475Z,67.48
2016-10-14T03:28:08.182Z,67.2
2016-10-14T03:29:08.513Z,67.1
2016-10-14T03:30:08.531Z,66.82
2016-10-14T03:31:08.232Z,67.29
2016-10-14T03:32:08.567Z,67.58
2016-10-14T03:33:08.269Z,67.29
2016-10-14T03:34:08.603Z,67.29
2016-10-14T03:35:08.619Z,67.39
2016-10-14T03:36:08.323Z,67.48
2016-10-14T03:37:08.342Z,67.58
2016-10-14T03:38:08.364Z,67.96
2016-10-14T03:39:08.377Z,67.2
2016-10-14T03:40:08.407Z,67.29
2016-10-14T03:41:08.430Z,67.1
2016-10-14T03:42:08.438Z,67.1
2016-10-14T03:43:08.764Z,67.39
2016-10-14T03:44:08.472Z,66.91
2016-10-14T03:45:08.802Z,66.82
2016-10-14T03:46:08.504Z,66.72
2016-10-14T03:47:08.529Z,66.82
2016-10-14T03:48:08.541Z,66.63
2016-10-14T03:49:08.557Z,66.63
2016-10-14T03:50:08.893Z,66.82
2016-10-14T03:51:08.594Z,66.72
2016-10-14T03:52:08.928Z,66.72
2016-10-14T03:53:08.629Z,66.82
2016-10-14T03:54:08.972Z,66.91
2016-10-14T03:55:08.983Z,66.91
2016-10-14T03:56:08.684Z,67.1
2016-10-14T03:57:08.700Z,66.91
2016-10-14T03:58:08.721Z,66.82
2016-10-14T03:59:08.740Z,66.82
2016-10-14T04:00:08.756Z,67.35
2016-10-14T04:01:08.776Z,67.26
2016-10-14T04:02:09.107Z,67.74
2016-10-14T04:03:08.809Z,67.16
2016-10-14T04:04:08.829Z,67.39
2016-10-14T04:05:08.848Z,67.1
2016-10-14T04:06:09.186Z,67.39
2016-10-14T04:07:08.883Z,66.88
2016-10-14T04:08:08.900Z,66.91
2016-10-14T04:09:09.235Z,67.26
2016-10-14T04:10:08.938Z,67.26
2016-10-14T04:11:09.268Z,67.45
2016-10-14T04:12:08.978Z,67.35
2016-10-14T04:13:08.992Z,67.74
2016-10-14T04:14:09.008Z,67.55
2016-10-14T04:15:09.341Z,67.83
2016-10-14T04:16:09.361Z,67.07
2016-10-14T04:17:09.378Z,67.07
2016-10-14T04:18:09.080Z,67.74
2016-10-14T04:19:09.098Z,67.16
2016-10-14T04:20:09.116Z,67.45
2016-10-14T04:21:09.458Z,67.55
2016-10-14T04:22:09.153Z,67.35
2016-10-14T04:23:09.486Z,67.93
2016-10-14T04:24:09.188Z,67.74
2016-10-14T04:25:09.209Z,67.74
2016-10-14T04:26:09.225Z,67.93
2016-10-14T04:27:09.559Z,67.83
2016-10-14T04:28:09.265Z,68.02
2016-10-14T04:29:09.280Z,67.45
2016-10-14T04:30:09.297Z,67.07
2016-10-14T04:31:09.321Z,67.55
2016-10-14T04:32:09.656Z,67.64
2016-10-14T04:33:09.354Z,67.74
2016-10-14T04:34:09.684Z,67.74
2016-10-14T04:35:09.702Z,67.93
2016-10-14T04:36:09.731Z,67.45
2016-10-14T04:37:09.424Z,67.16
2016-10-14T04:38:09.438Z,67.07
2016-10-14T04:39:09.776Z,67.16
2016-10-14T04:40:09.482Z,67.83
2016-10-14T04:41:09.811Z,67.74
2016-10-14T04:42:09.827Z,67.55
2016-10-14T04:43:09.855Z,67.93
2016-10-14T04:44:09.868Z,67.93
2016-10-14T04:45:09.568Z,67.45
2016-10-14T04:46:09.587Z,67.74
2016-10-14T04:47:09.923Z,68.21
2016-10-14T04:48:09.935Z,67.93
2016-10-14T04:49:09.957Z,67.26
2016-10-14T04:50:09.657Z,67.93
2016-10-14T04:51:10.014Z,67.26
2016-10-14T04:52:09.702Z,67.93
2016-10-14T04:53:09.710Z,67.74
2016-10-14T04:54:10.040Z,68.4
2016-10-14T04:55:10.083Z,67.83
2016-10-14T04:56:09.772Z,67.74
2016-10-14T04:57:10.104Z,68.02
2016-10-14T04:58:10.139Z,67.93
2016-10-14T04:59:09.822Z,68.21
2016-10-14T05:00:09.837Z,68.3
2016-10-14T05:01:09.854Z,68.12
2016-10-14T05:02:09.886Z,67.93
2016-10-14T05:03:09.901Z,68.59
2016-10-14T05:04:09.908Z,68.21
2016-10-14T05:05:10.245Z,68.59
2016-10-14T05:06:09.947Z,68.59
2016-10-14T05:07:09.964Z,68.5
2016-10-14T05:08:10.301Z,68.59
2016-10-14T05:09:10.312Z,68.59
2016-10-14T05:10:10.332Z,68.21
2016-10-14T05:11:10.055Z,68.3
2016-10-14T05:12:10.052Z,68.3
2016-10-14T05:13:10.066Z,68.3
2016-10-14T05:14:10.085Z,68.21
2016-10-14T05:15:10.116Z,68.5
2016-10-14T05:16:10.436Z,68.21
2016-10-14T05:17:10.458Z,68.59
2016-10-14T05:18:10.474Z,68.3
2016-10-14T05:19:10.491Z,68.78
2016-10-14T05:20:10.192Z,68.69
2016-10-14T05:21:10.212Z,68.59
2016-10-14T05:22:10.233Z,68.3
2016-10-14T05:23:10.254Z,68.88
2016-10-14T05:24:10.595Z,68.5
2016-10-14T05:25:10.291Z,68.3
2016-10-14T05:26:10.302Z,68.3
2016-10-14T05:27:10.321Z,68.12
2016-10-14T05:28:10.343Z,68.4
2016-10-14T05:29:10.667Z,68.3
2016-10-14T05:30:10.373Z,68.78
2016-10-14T05:31:10.391Z,68.21
2016-10-14T05:32:10.411Z,67.83
2016-10-14T05:33:10.424Z,68.69
2016-10-14T05:34:10.763Z,68.21
2016-10-14T05:35:10.462Z,67.93
2016-10-14T05:36:10.480Z,68.21
2016-10-14T05:37:10.497Z,68.3
2016-10-14T05:38:10.828Z,68.69
2016-10-14T05:39:10.849Z,68.5
2016-10-14T05:40:10.550Z,68.5
2016-10-14T05:41:10.574Z,68.3
2016-10-14T05:42:10.903Z,68.3
2016-10-14T05:43:10.604Z,68.21
2016-10-14T05:44:10.623Z,68.3
2016-10-14T05:45:10.638Z,68.5
2016-10-14T05:46:10.974Z,67.83
2016-10-14T05:47:10.673Z,68.02
2016-10-14T05:48:10.701Z,67.45
2016-10-14T05:49:10.710Z,67.93
2016-10-14T05:50:10.726Z,68.02
2016-10-14T05:51:10.748Z,67.83
2016-10-14T05:52:10.767Z,67.74
2016-10-14T05:53:10.786Z,67.55
2016-10-14T05:54:10.802Z,68.02
2016-10-14T05:55:10.819Z,67.74
2016-10-14T05:56:11.155Z,67.83
2016-10-14T05:57:10.857Z,68.5
2016-10-14T05:58:11.208Z,68.78
2016-10-14T05:59:11.208Z,68.3
2016-10-14T06:00:11.227Z,67.93
2016-10-14T06:01:11.244Z,67.93
2016-10-14T06:02:10.953Z,67.83
2016-10-14T06:03:10.964Z,67.83
2016-10-14T06:04:11.295Z,68.4
2016-10-14T06:05:10.998Z,68.3
2016-10-14T06:06:11.332Z,67.83
2016-10-14T06:07:11.348Z,68.69
2016-10-14T06:08:11.367Z,68.59
2016-10-14T06:09:11.397Z,68.21
2016-10-14T06:10:11.093Z,68.3
2016-10-14T06:11:11.101Z,68.3
2016-10-14T06:12:11.120Z,68.3
2016-10-14T06:13:11.141Z,68.5
2016-10-14T06:14:11.155Z,68.02
2016-10-14T06:15:11.173Z,68.69
2016-10-14T06:16:11.194Z,68.59
2016-10-14T06:17:11.212Z,68.56
2016-10-14T06:18:11.548Z,68.84
2016-10-14T06:19:11.246Z,68.75
2016-10-14T06:20:11.581Z,68.65
2016-10-14T06:21:11.281Z,68.56
2016-10-14T06:22:11.623Z,68.65
2016-10-14T06:23:11.633Z,69.42
2016-10-14T06:24:11.650Z,69.51
2016-10-14T06:25:11.371Z,69.7
2016-10-14T06:26:11.684Z,69.7
2016-10-14T06:27:11.704Z,69.42
2016-10-14T06:28:11.718Z,69.32
2016-10-14T06:29:11.421Z,69.26
2016-10-14T06:30:11.757Z,69.32
2016-10-14T06:31:11.779Z,69.42
2016-10-14T06:32:11.476Z,69.42
2016-10-14T06:33:11.494Z,69.23
2016-10-14T06:34:11.824Z,69.51
2016-10-14T06:35:11.525Z,68.78
2016-10-14T06:36:11.864Z,68.78
2016-10-14T06:37:11.564Z,68.98
2016-10-14T06:38:11.581Z,68.5
2016-10-14T06:39:11.914Z,68.4
2016-10-14T06:40:11.929Z,68.5
2016-10-14T06:41:11.948Z,67.74
2016-10-14T06:42:11.652Z,68.69
2016-10-14T06:43:11.984Z,68.46
2016-10-14T06:44:12.002Z,68.75
2016-10-14T06:45:11.706Z,68.84
2016-10-14T06:46:12.041Z,68.84
2016-10-14T06:47:11.742Z,69.04
2016-10-14T06:48:12.071Z,68.37
2016-10-14T06:49:12.092Z,68.46
2016-10-14T06:50:11.792Z,68.84
2016-10-14T06:51:12.127Z,68.75
2016-10-14T06:52:12.141Z,68.75
2016-10-14T06:53:11.845Z,68.46
2016-10-14T06:54:11.875Z,68.56
2016-10-14T06:55:11.881Z,68.75
2016-10-14T06:56:12.213Z,69.51
2016-10-14T06:57:11.917Z,68.84
2016-10-14T06:58:12.249Z,68.65
2016-10-14T06:59:11.952Z,69.42
2016-10-14T07:00:12.287Z,68.5
2016-10-14T07:01:12.308Z,68.59
2016-10-14T07:02:12.317Z,68.4
2016-10-14T07:03:12.023Z,68.59
2016-10-14T07:04:12.047Z,68.27
2016-10-14T07:05:12.373Z,68.4
2016-10-14T07:06:12.077Z,68.46
2016-10-14T07:07:12.092Z,68.56
2016-10-14T07:08:12.114Z,68.08
2016-10-14T07:09:12.467Z,68.56
2016-10-14T07:10:12.158Z,68.75
2016-10-14T07:11:12.163Z,68.59
2016-10-14T07:12:12.189Z,68.59
2016-10-14T07:13:12.514Z,68.69
2016-10-14T07:14:12.529Z,68.3
2016-10-14T07:15:12.556Z,68.3
2016-10-14T07:16:12.274Z,67.83
2016-10-14T07:17:12.284Z,68.02
2016-10-14T07:18:12.605Z,68.12
2016-10-14T07:19:12.619Z,68.59
2016-10-14T07:20:12.324Z,68.69
2016-10-14T07:21:12.338Z,68.3
2016-10-14T07:22:12.680Z,68.3
2016-10-14T07:23:12.697Z,68.02
2016-10-14T07:24:12.394Z,67.83
2016-10-14T07:25:12.408Z,67.74
2016-10-14T07:26:12.428Z,68.02
2016-10-14T07:27:12.767Z,68.02
2016-10-14T07:28:12.778Z,68.4
2016-10-14T07:29:12.795Z,68.5
2016-10-14T07:30:12.499Z,68.21
2016-10-14T07:31:12.839Z,68.12
2016-10-14T07:32:12.851Z,67.64
2016-10-14T07:33:12.869Z,67.55
2016-10-14T07:34:12.572Z,67.16
2016-10-14T07:35:12.588Z,67.93
2016-10-14T07:36:12.607Z,68.02
2016-10-14T07:37:12.625Z,67.74
2016-10-14T07:38:12.975Z,67.64
2016-10-14T07:39:12.975Z,67.35
2016-10-14T07:40:12.995Z,67.35
2016-10-14T07:41:12.697Z,66.88
2016-10-14T07:42:13.031Z,67.07
2016-10-14T07:43:12.733Z,67.74
2016-10-14T07:44:13.066Z,67.07
2016-10-14T07:45:12.766Z,67.48
2016-10-14T07:46:12.791Z,67.58
2016-10-14T07:47:13.006Z,67
2016-10-14T07:48:12.819Z,66.82
2016-10-14T07:49:13.163Z,66.24
2016-10-14T07:50:12.856Z,66.72
2016-10-14T07:51:13.190Z,66.72
2016-10-14T07:52:12.893Z,66.63
2016-10-14T07:53:13.229Z,66.63
2016-10-14T07:54:13.246Z,66.24
2016-10-14T07:56:13.283Z,66.34
2016-10-14T07:57:13.306Z,66.53
2016-10-14T07:58:13.318Z,66.05
2016-10-14T07:59:13.332Z,66.15
2016-10-14T08:00:13.357Z,66.15
2016-10-14T08:01:13.388Z,65.29
2016-10-14T08:02:13.390Z,65.23
2016-10-14T08:03:13.093Z,64.94
2016-10-14T08:04:13.430Z,65.33
2016-10-14T08:05:13.131Z,65.13
2016-10-14T08:06:13.465Z,64.56
2016-10-14T08:07:13.167Z,65.23
2016-10-14T08:08:13.185Z,64.85
2016-10-14T08:09:13.202Z,64.85
2016-10-14T08:10:13.221Z,63.7
2016-10-14T08:11:13.240Z,63.23
2016-10-14T08:12:13.256Z,63.42
2016-10-14T08:13:13.278Z,63.04
2016-10-14T08:14:13.611Z,63.32
2016-10-14T08:15:13.627Z,63.99
2016-10-14T08:16:13.653Z,63.7
2016-10-14T08:17:13.668Z,64.02
2016-10-14T08:18:13.369Z,63.16
2016-10-14T08:19:13.711Z,63.35
2016-10-14T08:20:13.406Z,62.21
2016-10-14T08:21:13.426Z,62.49
2016-10-14T08:22:13.763Z,62.49
2016-10-14T08:23:13.465Z,62.88
2016-10-14T08:24:13.485Z,62.02
2016-10-14T08:25:13.503Z,62.3
2016-10-14T08:26:13.837Z,62.4
2016-10-14T08:27:13.867Z,62.68
2016-10-14T08:28:13.877Z,62.49
2016-10-14T08:29:13.585Z,62.71
2016-10-14T08:30:13.915Z,62.62
2016-10-14T08:31:13.619Z,62.43
2016-10-14T08:32:13.652Z,62.43
2016-10-14T08:33:13.655Z,61.66
2016-10-14T08:34:13.991Z,60.61
2016-10-14T08:35:14.009Z,61.86
2016-10-14T08:36:14.028Z,61.66
2016-10-14T08:37:13.740Z,61.76
2016-10-14T08:38:13.757Z,60.61
2016-10-14T08:39:13.787Z,59.95
2016-10-14T08:40:14.107Z,60.33
2016-10-14T08:41:13.812Z,61.19
2016-10-14T08:42:13.831Z,60.36
2016-10-14T08:43:14.167Z,60.07
2016-10-14T08:44:14.187Z,59.59
2016-10-14T08:45:13.891Z,60.55
2016-10-14T08:46:14.234Z,59.98
2016-10-14T08:47:13.931Z,59.98
2016-10-14T08:48:14.266Z,59.69
2016-10-14T08:49:13.970Z,60.36
2016-10-14T08:50:14.005Z,59.98
2016-10-14T08:51:14.322Z,59.59
2016-10-14T08:52:14.345Z,58.73
2016-10-14T08:53:14.366Z,59.02
2016-10-14T08:54:14.072Z,59.5
2016-10-14T08:55:14.087Z,58.67
2016-10-14T08:56:14.423Z,58.45
2016-10-14T08:57:14.126Z,58.29
2016-10-14T08:58:14.466Z,58.48
2016-10-14T08:59:14.482Z,58.1
2016-10-14T09:00:14.187Z,57.9
2016-10-14T09:01:14.527Z,58.58
2016-10-14T09:02:14.544Z,59.15
2016-10-14T09:03:14.565Z,59.05
2016-10-14T09:04:14.268Z,58.48
2016-10-14T09:05:14.290Z,58
2016-10-14T09:06:14.308Z,58
2016-10-14T09:07:14.332Z,57.81
2016-10-14T09:08:14.352Z,58.1
2016-10-14T09:09:14.685Z,58.29
2016-10-14T09:10:14.406Z,58.19
2016-10-14T09:11:14.416Z,58.29
2016-10-14T09:12:14.770Z,57.43
2016-10-14T09:13:14.448Z,58.1
2016-10-14T09:14:14.787Z,59.05
2016-10-14T09:15:14.492Z,58.76
2016-10-14T09:16:14.528Z,59.15
2016-10-14T09:17:14.847Z,59.63
2016-10-14T09:18:14.550Z,58
2016-10-14T09:19:14.571Z,58.48
2016-10-14T09:20:14.589Z,58.19
2016-10-14T09:21:14.928Z,58.48
2016-10-14T09:22:14.945Z,58.98
2016-10-14T09:23:14.651Z,58.41
2016-10-14T09:24:14.682Z,57.62
2016-10-14T09:25:15.005Z,57.26
2016-10-14T09:26:15.028Z,57.93
2016-10-14T09:27:14.733Z,58.61
2016-10-14T09:28:14.775Z,57.65
2016-10-14T09:29:14.771Z,58.22
2016-10-14T09:30:14.791Z,58.03
2016-10-14T09:31:14.930Z,58.41
2016-10-14T09:32:14.833Z,58.7
2016-10-14T09:33:15.338Z,58.12
2016-10-14T09:34:15.193Z,58.51
2016-10-14T09:35:14.896Z,57.84
2016-10-14T09:36:15.236Z,57.55
2016-10-14T09:37:14.935Z,57.93
2016-10-14T09:38:15.271Z,58.51
2016-10-14T09:39:14.972Z,58.41
2016-10-14T09:40:15.027Z,57.55
2016-10-14T09:41:15.330Z,57.65
2016-10-14T09:42:15.034Z,57.46
2016-10-14T09:43:15.057Z,58.32
2016-10-14T09:44:15.391Z,58.98
2016-10-14T09:45:15.096Z,58.32
2016-10-14T09:46:15.143Z,58.41
2016-10-14T09:47:15.452Z,57.46
2016-10-14T09:48:15.676Z,57.46
2016-10-14T09:49:15.178Z,56.88
2016-10-14T09:50:15.546Z,57.75
2016-10-14T09:51:15.238Z,58.22
2016-10-14T09:52:15.248Z,57.65
2016-10-14T09:53:15.267Z,57.65
2016-10-14T09:54:15.301Z,58.41
2016-10-14T09:55:15.304Z,58.03
2016-10-14T09:56:15.328Z,58.51
2016-10-14T09:57:15.657Z,58.51
2016-10-14T09:58:15.368Z,59.08
2016-10-14T09:59:15.696Z,58.32
2016-10-14T10:00:15.725Z,58.34
2016-10-14T10:01:15.421Z,57.84
2016-10-14T10:02:15.455Z,57.97
2016-10-14T10:03:15.780Z,57.58
2016-10-14T10:04:15.485Z,57.48
2016-10-14T10:05:15.826Z,58.25
2016-10-14T10:06:15.849Z,58.34
2016-10-14T10:07:15.860Z,58.15
2016-10-14T10:08:15.566Z,57.39
2016-10-14T10:09:15.589Z,57.58
2016-10-14T10:10:15.933Z,57.48
2016-10-14T10:11:15.944Z,57.2
2016-10-14T10:12:15.649Z,57.58
2016-10-14T10:13:15.987Z,58.15
2016-10-14T10:14:16.017Z,57.87
2016-10-14T10:15:15.711Z,58.44
2016-10-14T10:16:16.055Z,57.97
2016-10-14T10:17:15.752Z,57.42
2016-10-14T10:18:15.772Z,57.13
2016-10-14T10:19:15.792Z,56.46
2016-10-14T10:20:15.817Z,56.56
2016-10-14T10:21:16.153Z,56.75
2016-10-14T10:22:15.857Z,56.75
2016-10-14T10:23:15.875Z,56.46
2016-10-14T10:24:15.919Z,56.46
2016-10-14T10:25:15.921Z,56.46
2016-10-14T10:26:15.957Z,55.6
2016-10-14T10:27:16.277Z,55.98
2016-10-14T10:28:16.323Z,55.82
2016-10-14T10:29:16.003Z,56.2
2016-10-14T10:30:16.025Z,55.73
2016-10-14T10:31:16.363Z,55.44
2016-10-14T10:32:16.072Z,56.3
2016-10-14T10:33:16.405Z,55.91
2016-10-14T10:34:16.111Z,55.91
2016-10-14T10:35:16.132Z,55.15
2016-10-14T10:36:16.153Z,55.34
2016-10-14T10:37:16.175Z,55.44
2016-10-14T10:38:16.522Z,55.34
2016-10-14T10:39:16.534Z,55.05
2016-10-14T10:40:16.564Z,55.44
2016-10-14T10:41:16.574Z,55.56
2016-10-14T10:42:16.290Z,54.12
2016-10-14T10:43:16.619Z,54.5
2016-10-14T10:44:16.330Z,54.32
2016-10-14T10:45:16.344Z,54.79
2016-10-14T10:46:16.376Z,55.08
2016-10-14T10:47:16.389Z,54.32
2016-10-14T10:48:16.412Z,54.32
2016-10-14T10:49:16.458Z,54.12
2016-10-14T10:50:16.454Z,54.5
2016-10-14T10:51:16.477Z,53.83
2016-10-14T10:52:16.817Z,53.93
2016-10-14T10:53:16.835Z,54.32
2016-10-14T10:54:16.542Z,54.5
2016-10-14T10:55:16.882Z,54.12
2016-10-14T10:56:16.900Z,54.5
2016-10-14T10:57:16.606Z,54.7
2016-10-14T10:58:16.953Z,54.6
2016-10-14T10:59:16.974Z,55.27
2016-10-14T11:00:16.672Z,55.56
2016-10-14T11:01:17.006Z,55.36
2016-10-14T11:02:16.716Z,55.36
2016-10-14T11:03:16.743Z,54.41
2016-10-14T11:04:17.075Z,54.22
2016-10-14T11:05:16.782Z,54.32
2016-10-14T11:06:16.812Z,54.89
2016-10-14T11:07:17.141Z,54.41
2016-10-14T11:08:17.172Z,54.12
2016-10-14T11:09:16.870Z,54.5
2016-10-14T11:10:17.216Z,54.7
2016-10-14T11:11:17.227Z,55.27
2016-10-14T11:12:17.259Z,55.56
2016-10-14T11:13:16.954Z,55.18
2016-10-14T11:14:16.977Z,55.65
2016-10-14T11:15:17.000Z,55.65
2016-10-14T11:16:17.340Z,55.08
2016-10-14T11:17:17.042Z,54.41
2016-10-14T11:18:17.070Z,55.08
2016-10-14T11:19:17.414Z,55.36
2016-10-14T11:20:17.108Z,55.56
2016-10-14T11:21:17.446Z,55.27
2016-10-14T11:22:17.161Z,54.99
2016-10-14T11:23:17.174Z,54.03
2016-10-14T11:24:17.198Z,54.6
2016-10-14T11:25:17.218Z,54.32
2016-10-14T11:26:17.247Z,55.36
2016-10-14T11:27:17.583Z,55.18
2016-10-14T11:28:17.598Z,55.36
2016-10-14T11:29:17.309Z,54.5
2016-10-14T11:30:17.326Z,54.7
2016-10-14T11:31:17.665Z,55.56
2016-10-14T11:32:17.380Z,55.27
2016-10-14T11:33:17.707Z,55.08
2016-10-14T11:34:17.730Z,55.08
2016-10-14T11:35:17.447Z,54.89
2016-10-14T11:36:17.779Z,54.5
2016-10-14T11:37:17.476Z,54.03
2016-10-14T11:38:17.819Z,54.32
2016-10-14T11:39:17.524Z,54.5
2016-10-14T11:40:17.551Z,54.6
2016-10-14T11:41:17.882Z,54.05
2016-10-14T11:42:17.917Z,54.6
2016-10-14T11:43:17.613Z,54.6
2016-10-14T11:44:17.958Z,54.99
2016-10-14T11:45:17.971Z,55.65
2016-10-14T11:46:17.701Z,54.5
2016-10-14T11:47:18.013Z,55.36
2016-10-14T11:48:18.038Z,55.4
2016-10-14T11:49:18.058Z,55.3
2016-10-14T11:50:17.787Z,55.3
2016-10-14T11:51:18.100Z,55.11
2016-10-14T11:52:18.135Z,54.44
2016-10-14T11:53:17.830Z,54.91
2016-10-14T11:54:17.852Z,55.87
2016-10-14T11:55:17.875Z,55.68
2016-10-14T11:56:18.213Z,55.11
2016-10-14T11:57:17.934Z,55.11
2016-10-14T11:58:17.942Z,54.63
2016-10-14T11:59:17.965Z,54.91
2016-10-14T12:00:18.308Z,54.44
2016-10-14T12:01:18.008Z,54.63
2016-10-14T12:02:18.048Z,55.11
2016-10-14T12:03:18.365Z,54.72
2016-10-14T12:04:18.399Z,54.63
2016-10-14T12:05:18.421Z,54.91
2016-10-14T12:06:18.119Z,55.11
2016-10-14T12:07:18.140Z,55.21
2016-10-14T12:08:18.161Z,55.3
2016-10-14T12:09:18.183Z,54.91
2016-10-14T12:10:18.208Z,55.3
2016-10-14T12:11:18.542Z,55.4
2016-10-14T12:12:18.568Z,55.58
2016-10-14T12:13:18.592Z,55.21
2016-10-14T12:14:18.293Z,55.49
2016-10-14T12:15:18.315Z,55.3
2016-10-14T12:16:18.683Z,54.82
2016-10-14T12:17:18.361Z,54.63
2016-10-14T12:18:18.703Z,54.85
2016-10-14T12:19:18.723Z,54.56
2016-10-14T12:20:18.434Z,54.46
2016-10-14T12:21:18.455Z,54.46
2016-10-14T12:22:18.811Z,54.66
2016-10-14T12:23:18.496Z,54.46
2016-10-14T12:24:18.837Z,54.66
2016-10-14T12:25:18.541Z,54.66
2016-10-14T12:26:18.561Z,54.27
2016-10-14T12:27:18.589Z,54.66
2016-10-14T12:28:18.616Z,54.37
2016-10-14T12:29:18.661Z,54.37
2016-10-14T12:30:18.704Z,54.56
2016-10-14T12:31:18.993Z,54.66
2016-10-14T12:32:18.696Z,54.17
2016-10-14T12:33:18.717Z,54.66
2016-10-14T12:34:18.744Z,54.85
2016-10-14T12:35:18.778Z,54.27
2016-10-14T12:36:18.807Z,54.56
2016-10-14T12:37:18.813Z,54.75
2016-10-14T12:38:19.149Z,54.66
2016-10-14T12:39:19.179Z,54.85
2016-10-14T12:40:19.200Z,54.27
2016-10-14T12:41:18.902Z,54.27
2016-10-14T12:42:18.922Z,54.75
2016-10-14T12:43:18.947Z,54.66
2016-10-14T12:44:19.283Z,54.66
2016-10-14T12:45:18.993Z,54.66
2016-10-14T12:46:19.332Z,54.46
2016-10-14T12:47:19.351Z,54.46
2016-10-14T12:48:19.374Z,54.56
2016-10-14T12:49:19.413Z,55.04
2016-10-14T12:50:19.416Z,54.56
2016-10-14T12:51:19.155Z,53.99
2016-10-14T12:52:19.476Z,54.37
2016-10-14T12:53:19.170Z,54.56
2016-10-14T12:54:19.520Z,54.85
2016-10-14T12:55:19.214Z,54.17
2016-10-14T12:56:19.553Z,54.46
2016-10-14T12:57:19.583Z,54.85